createdAt,value
2019-01-05T00:02:40.468Z,18.63
2019-01-05T00:06:04.461Z,12.40
2019-01-05T00:09:26.267Z,9.60
2019-01-05T00:12:52.355Z,15.40
2019-01-05T00:16:15.820Z,14.80
2019-01-05T00:19:41.312Z,10.87
2019-01-05T00:23:11.038Z,14.97
2019-01-05T00:26:43.461Z,10.57
2019-01-05T00:30:15.841Z,9.70
2019-01-05T00:33:48.826Z,10.60
2019-01-05T00:37:18.692Z,5.70
2019-01-05T00:40:53.406Z,9.63
2019-01-05T00:44:27.860Z,5.53
2019-01-05T00:47:51.026Z,9.50
2019-01-05T00:51:27.812Z,7.07
2019-01-05T00:54:58.356Z,5.13
2019-01-05T00:58:22.355Z,4.10
2019-01-05T01:01:58.988Z,4.50
2019-01-05T01:05:34.450Z,6.23
2019-01-05T01:08:57.658Z,4.87
2019-01-05T01:12:38.986Z,3.60
2019-01-05T01:16:05.074Z,3.90
2019-01-05T01:19:37.493Z,5.50
2019-01-05T01:23:11.274Z,9.03
2019-01-05T01:26:33.101Z,4.00
2019-01-05T01:29:59.525Z,5.27
2019-01-05T01:33:41.786Z,5.40
2019-01-05T01:37:05.166Z,5.73
2019-01-05T01:40:26.962Z,4.47
2019-01-05T01:44:02.043Z,6.10
2019-01-05T01:47:26.431Z,5.10
2019-01-05T01:50:49.345Z,7.83
2019-01-05T01:54:12.617Z,3.83
2019-01-05T01:57:37.915Z,3.70
2019-01-05T02:01:04.202Z,5.20
2019-01-05T02:04:41.947Z,3.90
2019-01-05T02:08:18.234Z,3.60
2019-01-05T02:11:55.819Z,4.60
2019-01-05T02:15:34.321Z,4.77
2019-01-05T02:19:28.581Z,3.13
2019-01-05T02:23:39.142Z,2.57
2019-01-05T02:27:33.776Z,2.80
2019-01-05T02:31:46.596Z,2.90
2019-01-05T02:35:40.836Z,2.40
2019-01-05T02:39:30.144Z,4.73
2019-01-05T02:43:40.105Z,4.97
2019-01-05T02:48:20.591Z,2.40
2019-01-05T02:52:38.226Z,2.07
2019-01-05T02:57:11.920Z,2.47
2019-01-05T03:01:42.722Z,2.17
2019-01-05T03:06:16.595Z,2.00
2019-01-05T03:10:25.291Z,2.40
2019-01-05T03:14:43.108Z,2.97
2019-01-05T03:18:49.220Z,4.13
2019-01-05T03:22:43.991Z,1.97
2019-01-05T03:26:47.989Z,2.60
2019-01-05T03:30:45.573Z,3.57
2019-01-05T03:35:06.699Z,3.20
2019-01-05T03:39:13.720Z,3.40
2019-01-05T03:42:58.668Z,4.90
2019-01-05T03:47:01.332Z,3.33
2019-01-05T03:51:31.551Z,4.33
2019-01-05T03:55:28.689Z,6.23
2019-01-05T03:59:39.647Z,4.23
2019-01-05T04:03:46.881Z,3.40
2019-01-05T04:07:47.331Z,3.80
2019-01-05T04:12:23.645Z,3.10
2019-01-05T04:16:20.561Z,5.70
2019-01-05T04:20:19.000Z,6.80
2019-01-05T04:24:17.591Z,4.13
2019-01-05T04:28:20.460Z,2.60
2019-01-05T04:32:17.386Z,6.33
2019-01-05T04:36:45.329Z,3.17
2019-01-05T04:40:34.611Z,4.80
2019-01-05T04:44:46.556Z,4.40
2019-01-05T04:48:43.819Z,3.17
2019-01-05T04:52:55.674Z,3.53
2019-01-05T04:57:05.586Z,3.80
2019-01-05T05:01:24.594Z,3.90
2019-01-05T05:05:48.109Z,3.43
2019-01-05T05:09:52.546Z,2.10
2019-01-05T05:13:56.101Z,2.10
2019-01-05T05:17:54.596Z,5.40
2019-01-05T05:21:47.782Z,2.53
2019-01-05T05:25:45.284Z,6.50
2019-01-05T05:29:46.531Z,8.13
2019-01-05T05:33:42.557Z,2.47
2019-01-05T05:37:48.142Z,2.73
2019-01-05T05:42:04.451Z,2.80
2019-01-05T05:45:59.634Z,4.07
2019-01-05T05:50:20.510Z,7.03
2019-01-05T05:54:25.055Z,3.63
2019-01-05T05:58:18.366Z,8.40
2019-01-05T06:02:21.464Z,3.67
2019-01-05T06:06:15.510Z,4.63
2019-01-05T06:10:26.719Z,3.90
2019-01-05T06:14:44.075Z,3.67
2019-01-05T06:18:47.144Z,4.13
2019-01-05T06:22:47.099Z,6.77
2019-01-05T06:26:57.322Z,5.10
2019-01-05T06:30:43.550Z,6.93
2019-01-05T06:34:47.324Z,7.07
2019-01-05T06:39:04.923Z,6.97
2019-01-05T06:43:12.831Z,8.27
2019-01-05T06:47:40.820Z,8.87
2019-01-05T06:51:54.333Z,6.10
2019-01-05T06:56:14.113Z,8.30
2019-01-05T07:00:21.621Z,11.67
2019-01-05T07:04:27.458Z,7.67
2019-01-05T07:08:43.818Z,5.23
2019-01-05T07:12:43.338Z,5.97
2019-01-05T07:17:02.823Z,6.50
2019-01-05T07:21:27.717Z,3.93
2019-01-05T07:25:45.069Z,4.77
2019-01-05T07:29:43.510Z,5.07
2019-01-05T07:33:45.859Z,6.40
2019-01-05T07:37:48.135Z,4.20
2019-01-05T07:41:55.539Z,6.53
2019-01-05T07:45:55.523Z,5.30
2019-01-05T07:50:14.879Z,4.40
2019-01-05T07:54:28.551Z,4.83
2019-01-05T07:58:38.565Z,10.47
2019-01-05T08:02:44.079Z,6.67
2019-01-05T08:06:55.564Z,9.30
2019-01-05T08:11:01.188Z,10.87
2019-01-05T08:15:31.990Z,13.63
2019-01-05T08:19:50.949Z,11.47
2019-01-05T08:23:47.168Z,6.30
2019-01-05T08:27:52.919Z,8.10
2019-01-05T08:32:10.718Z,6.57
2019-01-05T08:36:32.453Z,9.13
2019-01-05T08:40:44.235Z,8.13
2019-01-05T08:44:45.010Z,9.20
2019-01-05T08:48:45.891Z,11.80
2019-01-05T08:52:48.895Z,8.10
2019-01-05T08:56:47.139Z,10.03
2019-01-05T09:00:53.828Z,14.13
2019-01-05T09:05:20.288Z,7.00
2019-01-05T09:09:23.630Z,7.03
2019-01-05T09:13:32.026Z,8.73
2019-01-05T09:17:32.044Z,11.20
2019-01-05T09:21:31.139Z,11.80
2019-01-05T09:25:36.433Z,13.73
2019-01-05T09:29:31.328Z,9.17
2019-01-05T09:33:28.700Z,8.53
2019-01-05T09:37:43.964Z,13.80
2019-01-05T09:41:58.970Z,5.80
2019-01-05T09:46:04.505Z,9.80
2019-01-05T09:50:10.734Z,7.70
2019-01-05T09:54:21.014Z,7.87
2019-01-05T09:58:52.678Z,6.50
2019-01-05T10:03:14.808Z,6.90
2019-01-05T10:07:33.193Z,15.87
2019-01-05T10:11:38.133Z,5.63
2019-01-05T10:16:12.588Z,7.17
2019-01-05T10:20:23.094Z,14.23
2019-01-05T10:24:46.757Z,7.77
2019-01-05T10:29:16.587Z,6.93
2019-01-05T10:34:03.531Z,4.07
2019-01-05T10:37:47.033Z,4.20
2019-01-05T10:41:58.644Z,8.60
2019-01-05T10:46:32.779Z,3.57
2019-01-05T10:50:30.937Z,4.10
2019-01-05T10:54:38.699Z,4.93
2019-01-05T10:58:56.315Z,8.00
2019-01-05T11:03:14.940Z,7.47
2019-01-05T11:07:09.489Z,7.23
2019-01-05T11:11:28.407Z,7.63
2019-01-05T11:15:33.429Z,4.37
2019-01-05T11:19:36.304Z,5.50
2019-01-05T11:23:42.347Z,5.47
2019-01-05T11:28:01.228Z,7.83
2019-01-05T11:32:14.947Z,7.47
2019-01-05T11:36:13.492Z,5.97
2019-01-05T11:40:35.625Z,6.60
2019-01-05T11:44:35.725Z,5.80
2019-01-05T11:48:34.283Z,9.30
2019-01-05T11:52:34.818Z,8.10
2019-01-05T11:56:57.187Z,5.17
2019-01-05T12:01:11.608Z,4.23
2019-01-05T12:05:29.354Z,5.33
2019-01-05T12:09:24.588Z,6.03
2019-01-05T12:13:36.198Z,8.13
2019-01-05T12:17:57.998Z,7.17
2019-01-05T12:22:02.459Z,4.60
2019-01-05T12:26:30.652Z,6.23
2019-01-05T12:30:36.837Z,5.27
2019-01-05T12:35:09.813Z,4.03
2019-01-05T12:39:21.310Z,6.83
2019-01-05T12:43:31.892Z,7.77
2019-01-05T12:47:34.688Z,5.87
2019-01-05T12:51:24.494Z,4.70
2019-01-05T12:55:36.361Z,8.80
2019-01-05T12:59:34.993Z,9.03
2019-01-05T13:03:34.766Z,5.33
2019-01-05T13:07:56.412Z,5.63
2019-01-05T13:12:13.907Z,3.27
2019-01-05T13:16:30.337Z,4.83
2019-01-05T13:20:05.254Z,5.93
2019-01-05T13:24:23.069Z,4.57
2019-01-05T13:28:32.857Z,3.63
2019-01-05T13:32:53.473Z,6.70
2019-01-05T13:37:02.490Z,6.27
2019-01-05T13:40:57.179Z,4.03
2019-01-05T13:44:51.633Z,3.73
2019-01-05T13:48:57.958Z,2.57
2019-01-05T13:52:50.563Z,3.90
2019-01-05T13:56:30.691Z,2.90
2019-01-05T13:59:50.398Z,3.87
2019-01-05T14:03:19.639Z,5.20
2019-01-05T14:06:41.349Z,4.57
2019-01-05T14:10:02.274Z,3.10
2019-01-05T14:13:28.473Z,3.20
2019-01-05T14:17:00.628Z,3.50
2019-01-05T14:20:22.413Z,6.40
2019-01-05T14:23:44.002Z,7.50
2019-01-05T14:27:03.323Z,3.93
2019-01-05T14:30:43.722Z,5.00
2019-01-05T14:34:24.892Z,34.40
2019-01-05T14:37:51.246Z,5.87
2019-01-05T14:41:22.692Z,6.40
2019-01-05T14:44:43.131Z,6.33
2019-01-05T14:48:05.000Z,4.57
2019-01-05T14:51:40.137Z,8.23
2019-01-05T14:55:01.996Z,7.27
2019-01-05T14:58:29.541Z,5.40
2019-01-05T15:01:51.223Z,5.10
2019-01-05T15:05:12.967Z,4.20
2019-01-05T15:08:34.556Z,7.70
2019-01-05T15:11:57.824Z,6.80
2019-01-05T15:15:19.087Z,7.33
2019-01-05T15:18:42.256Z,6.97
2019-01-05T15:22:14.791Z,5.40
2019-01-05T15:25:36.514Z,4.47
2019-01-05T15:29:08.663Z,9.23
2019-01-05T15:32:30.561Z,4.23
2019-01-05T15:35:52.522Z,10.90
2019-01-05T15:39:14.148Z,4.60
2019-01-05T15:42:40.170Z,5.90
2019-01-05T15:46:02.168Z,10.23
2019-01-05T15:49:23.827Z,9.43
2019-01-05T15:52:55.835Z,6.10
2019-01-05T15:56:17.433Z,7.07
2019-01-05T15:59:52.579Z,5.90
2019-01-05T16:03:24.847Z,12.90
2019-01-05T16:07:02.988Z,7.17
2019-01-05T16:10:36.372Z,9.20
2019-01-05T16:13:59.626Z,9.33
2019-01-05T16:17:29.234Z,11.43
2019-01-05T16:20:58.530Z,7.97
2019-01-05T16:24:29.233Z,10.77
2019-01-05T16:27:51.008Z,15.00
2019-01-05T16:31:17.854Z,10.47
2019-01-05T16:34:39.504Z,8.63
2019-01-05T16:38:01.103Z,9.33
2019-01-05T16:41:31.512Z,11.93
2019-01-05T16:45:03.697Z,6.93
2019-01-05T16:48:36.168Z,13.60
2019-01-05T16:52:18.351Z,9.97
2019-01-05T16:55:46.403Z,10.43
2019-01-05T16:59:05.372Z,7.67
2019-01-05T17:02:26.978Z,7.53
2019-01-05T17:05:48.818Z,8.50
2019-01-05T17:09:10.719Z,9.10
2019-01-05T17:12:30.269Z,9.83
2019-01-05T17:15:59.236Z,8.87
2019-01-05T17:19:37.605Z,9.63
2019-01-05T17:22:59.213Z,11.80
2019-01-05T17:26:20.993Z,12.67
2019-01-05T17:29:42.596Z,10.90
2019-01-05T17:33:08.932Z,10.07
2019-01-05T17:36:30.594Z,8.13
2019-01-05T17:39:49.236Z,7.40
2019-01-05T17:43:10.997Z,9.10
2019-01-05T17:46:43.049Z,16.43
2019-01-05T17:50:08.970Z,12.43
2019-01-05T17:53:41.139Z,9.27
2019-01-05T17:57:02.857Z,9.80
2019-01-05T18:00:24.320Z,9.90
2019-01-05T18:03:50.641Z,12.53
2019-01-05T18:07:12.618Z,7.70
2019-01-05T18:10:44.603Z,10.47
2019-01-05T18:14:17.063Z,11.23
2019-01-05T18:17:43.287Z,15.43
2019-01-05T18:21:04.815Z,18.60
2019-01-05T18:24:32.727Z,11.73
2019-01-05T18:27:54.472Z,15.60
2019-01-05T18:31:16.221Z,17.30
2019-01-05T18:34:49.477Z,13.53
2019-01-05T18:38:19.301Z,10.63
2019-01-05T18:41:48.400Z,12.37
2019-01-05T18:45:14.782Z,9.87
2019-01-05T18:48:38.134Z,13.23
2019-01-05T18:52:11.007Z,14.20
2019-01-05T18:55:43.169Z,12.70
2019-01-05T18:59:02.852Z,15.60
2019-01-05T19:02:24.823Z,16.50
2019-01-05T19:05:54.194Z,15.60
2019-01-05T19:09:16.239Z,13.00
2019-01-05T19:12:39.552Z,11.33
2019-01-05T19:16:00.327Z,12.77
2019-01-05T19:19:31.871Z,17.20
2019-01-05T19:22:57.485Z,16.60
2019-01-05T19:26:19.427Z,14.33
2019-01-05T19:29:41.237Z,10.00
2019-01-05T19:33:14.511Z,12.37
2019-01-05T19:36:38.391Z,12.23
2019-01-05T19:40:17.717Z,9.90
2019-01-05T19:43:38.921Z,8.20
2019-01-05T19:47:20.130Z,12.57
2019-01-05T19:50:49.201Z,9.97
2019-01-05T19:54:11.133Z,12.23
2019-01-05T19:57:52.619Z,8.80
2019-01-05T20:01:28.006Z,10.93
2019-01-05T20:04:54.369Z,11.20
2019-01-05T20:08:29.707Z,13.87
2019-01-05T20:12:04.870Z,10.77
2019-01-05T20:15:26.928Z,11.50
2019-01-05T20:18:53.512Z,16.47
2019-01-05T20:22:30.686Z,15.00
2019-01-05T20:26:12.288Z,14.03
2019-01-05T20:29:38.506Z,11.47
2019-01-05T20:33:13.583Z,16.17
2019-01-05T20:36:35.210Z,16.30
2019-01-05T20:40:07.495Z,11.37
2019-01-05T20:43:24.897Z,14.43
2019-01-05T20:47:06.343Z,14.93
2019-01-05T20:50:28.024Z,13.27
2019-01-05T20:53:51.267Z,12.30
2019-01-05T20:57:13.168Z,10.30
2019-01-05T21:00:35.085Z,13.43
2019-01-05T21:04:16.136Z,12.93
2019-01-05T21:07:37.766Z,10.77
2019-01-05T21:11:00.959Z,8.27
2019-01-05T21:14:27.071Z,10.20
2019-01-05T21:17:48.942Z,13.63
2019-01-05T21:21:10.722Z,11.60
2019-01-05T21:24:39.994Z,12.43
2019-01-05T21:28:03.240Z,11.50
2019-01-05T21:31:24.790Z,13.90
2019-01-05T21:34:54.155Z,11.30
2019-01-05T21:38:15.829Z,12.53
2019-01-05T21:41:39.044Z,14.00
2019-01-05T21:44:59.167Z,10.70
2019-01-05T21:48:31.511Z,9.50
2019-01-05T21:51:53.026Z,8.87
2019-01-05T21:55:22.073Z,9.83
2019-01-05T21:58:47.696Z,9.10
2019-01-05T22:02:09.424Z,7.80
2019-01-05T22:05:47.826Z,6.90
2019-01-05T22:09:17.909Z,7.43
2019-01-05T22:12:47.101Z,8.67
2019-01-05T22:16:28.415Z,7.80
2019-01-05T22:19:57.487Z,7.33
2019-01-05T22:23:20.657Z,6.40
2019-01-05T22:26:42.562Z,13.80
2019-01-05T22:30:09.106Z,6.10
2019-01-05T22:33:35.431Z,6.07
2019-01-05T22:36:56.039Z,6.30
2019-01-05T22:40:18.272Z,4.30
2019-01-05T22:43:43.056Z,10.00
2019-01-05T22:47:24.568Z,7.07
2019-01-05T22:50:59.688Z,7.70
2019-01-05T22:54:16.381Z,4.60
2019-01-05T22:57:47.316Z,6.77
2019-01-05T23:01:10.566Z,7.30
2019-01-05T23:04:37.307Z,10.10
2019-01-05T23:08:12.415Z,6.70
2019-01-05T23:11:46.924Z,7.43
2019-01-05T23:15:19.316Z,6.87
2019-01-05T23:18:54.447Z,6.83
2019-01-05T23:22:17.144Z,6.90
2019-01-05T23:25:37.064Z,8.43
2019-01-05T23:29:15.001Z,9.07
2019-01-05T23:35:51.210Z,6.77
2019-01-05T23:39:12.794Z,8.70
2019-01-05T23:42:36.035Z,5.70
2019-01-05T23:46:14.263Z,8.23
2019-01-05T23:49:47.934Z,6.40
2019-01-05T23:53:15.008Z,4.20
2019-01-05T23:56:40.989Z,5.80
